SKB761 KDFW-KOKC
Flight info
| Callsign | SKB761 |
|---|---|
| Flight time | 0h 39m |
| Altitude | 20000 |
| Route | BLECO8 ZEMMA TSDEL3 |
| Aircraft | A320/M-SDE3FGHIRWY/LB1 |
Departure
| Time | 2026-05-05 05:25 |
|---|---|
| Airport | Dallas Fort Worth International Airport (KDFW) |
Arrival
| Time | 2026-05-05 06:04 |
|---|---|
| Airport | OKC Will Rogers World Airport (KOKC) |
| Time | Latitude | Longitude | Altitude | Speed | Heading |
|---|---|---|---|---|---|
| 2026-05-05 04:31 | 32.89323 | -97.03754 | 616 ft | 0 kts | 195° |
| 2026-05-05 05:12 | 32.89333 | -97.03751 | 628 ft | 4 kts | 188° |
| 2026-05-05 05:12 | 32.89358 | -97.03753 | 615 ft | 4 kts | 150° |
| 2026-05-05 05:12 | 32.89376 | -97.03774 | 616 ft | 4 kts | 108° |
| 2026-05-05 05:12 | 32.89379 | -97.03790 | 616 ft | 0 kts | 89° |
| 2026-05-05 05:15 | 32.89379 | -97.03789 | 615 ft | 0 kts | 89° |
| 2026-05-05 05:15 | 32.89379 | -97.03778 | 615 ft | 2 kts | 90° |
| 2026-05-05 05:16 | 32.89379 | -97.03753 | 615 ft | 4 kts | 90° |
| 2026-05-05 05:16 | 32.89379 | -97.03705 | 615 ft | 7 kts | 90° |
| 2026-05-05 05:16 | 32.89378 | -97.03631 | 615 ft | 11 kts | 91° |
| 2026-05-05 05:16 | 32.89379 | -97.03527 | 615 ft | 15 kts | 89° |
| 2026-05-05 05:17 | 32.89380 | -97.03390 | 615 ft | 17 kts | 89° |
| 2026-05-05 05:17 | 32.89394 | -97.03254 | 620 ft | 16 kts | 86° |
| 2026-05-05 05:17 | 32.89455 | -97.03195 | 616 ft | 12 kts | 358° |
| 2026-05-05 05:17 | 32.89535 | -97.03195 | 616 ft | 11 kts | 1° |
| 2026-05-05 05:18 | 32.89617 | -97.03194 | 628 ft | 13 kts | 0° |
| 2026-05-05 05:18 | 32.89699 | -97.03193 | 616 ft | 11 kts | 0° |
| 2026-05-05 05:18 | 32.89771 | -97.03192 | 620 ft | 10 kts | 0° |
| 2026-05-05 05:18 | 32.89833 | -97.03192 | 626 ft | 8 kts | 360° |
| 2026-05-05 05:19 | 32.89904 | -97.03191 | 616 ft | 14 kts | 1° |
| 2026-05-05 05:19 | 32.90029 | -97.03188 | 623 ft | 20 kts | 358° |
| 2026-05-05 05:19 | 32.90164 | -97.03192 | 626 ft | 19 kts | 359° |
| 2026-05-05 05:19 | 32.90291 | -97.03191 | 619 ft | 17 kts | 1° |
| 2026-05-05 05:20 | 32.90406 | -97.03190 | 623 ft | 16 kts | 0° |
| 2026-05-05 05:20 | 32.90510 | -97.03189 | 628 ft | 14 kts | 0° |
| 2026-05-05 05:20 | 32.90604 | -97.03188 | 625 ft | 15 kts | 0° |
| 2026-05-05 05:20 | 32.90748 | -97.03186 | 619 ft | 26 kts | 0° |
| 2026-05-05 05:21 | 32.90932 | -97.03185 | 619 ft | 26 kts | 0° |
| 2026-05-05 05:21 | 32.91114 | -97.03183 | 616 ft | 24 kts | 0° |
| 2026-05-05 05:21 | 32.91278 | -97.03182 | 616 ft | 23 kts | 0° |
| 2026-05-05 05:21 | 32.91431 | -97.03181 | 626 ft | 21 kts | 0° |
| 2026-05-05 05:22 | 32.91557 | -97.03157 | 619 ft | 14 kts | 56° |
| 2026-05-05 05:22 | 32.91565 | -97.03049 | 621 ft | 12 kts | 91° |
| 2026-05-05 05:22 | 32.91563 | -97.02953 | 616 ft | 11 kts | 91° |
| 2026-05-05 05:22 | 32.91561 | -97.02859 | 622 ft | 12 kts | 91° |
| 2026-05-05 05:23 | 32.91560 | -97.02765 | 616 ft | 11 kts | 90° |
| 2026-05-05 05:23 | 32.91561 | -97.02719 | 616 ft | 0 kts | 89° |
| 2026-05-05 05:23 | 32.91562 | -97.02675 | 616 ft | 14 kts | 89° |
| 2026-05-05 05:24 | 32.91517 | -97.02601 | 616 ft | 12 kts | 182° |
| 2026-05-05 05:24 | 32.91371 | -97.02602 | 623 ft | 47 kts | 180° |
| 2026-05-05 05:24 | 32.90812 | -97.02605 | 616 ft | 111 kts | 180° |
| 2026-05-05 05:24 | 32.89860 | -97.02605 | 643 ft | 157 kts | 181° |
| 2026-05-05 05:25 | 32.88765 | -97.02600 | 1211 ft | 160 kts | 180° |
| 2026-05-05 05:25 | 32.87646 | -97.02566 | 1932 ft | 161 kts | 180° |
| 2026-05-05 05:25 | 32.86519 | -97.02519 | 2570 ft | 167 kts | 180° |
| 2026-05-05 05:25 | 32.85275 | -97.02469 | 2814 ft | 192 kts | 180° |
| 2026-05-05 05:26 | 32.83860 | -97.02198 | 3031 ft | 222 kts | 162° |
| 2026-05-05 05:26 | 32.82389 | -97.01447 | 3736 ft | 232 kts | 161° |
| 2026-05-05 05:26 | 32.80884 | -97.00697 | 4561 ft | 239 kts | 162° |
| 2026-05-05 05:26 | 32.79312 | -96.99927 | 5286 ft | 249 kts | 160° |
| 2026-05-05 05:27 | 32.77906 | -96.98599 | 5916 ft | 275 kts | 131° |
| 2026-05-05 05:27 | 32.77001 | -96.96526 | 6692 ft | 287 kts | 118° |
| 2026-05-05 05:27 | 32.76377 | -96.91756 | 7975 ft | 316 kts | 83° |
| 2026-05-05 05:28 | 32.76735 | -96.89145 | 8635 ft | 321 kts | 83° |
| 2026-05-05 05:28 | 32.77271 | -96.86535 | 9323 ft | 329 kts | 68° |
| 2026-05-05 05:28 | 32.78519 | -96.84269 | 9992 ft | 330 kts | 43° |
| 2026-05-05 05:28 | 32.80328 | -96.82638 | 10708 ft | 329 kts | 24° |
| 2026-05-05 05:29 | 32.82482 | -96.81732 | 11068 ft | 336 kts | 4° |
| 2026-05-05 05:29 | 32.84826 | -96.81327 | 11575 ft | 346 kts | 4° |
| 2026-05-05 05:29 | 32.87222 | -96.81051 | 12293 ft | 345 kts | 357° |
| 2026-05-05 05:29 | 32.89628 | -96.80969 | 13076 ft | 346 kts | 356° |
| 2026-05-05 05:30 | 32.92042 | -96.80918 | 13798 ft | 348 kts | 355° |
| 2026-05-05 05:30 | 32.94462 | -96.80955 | 14501 ft | 348 kts | 351° |
| 2026-05-05 05:30 | 32.96885 | -96.81198 | 15179 ft | 351 kts | 349° |
| 2026-05-05 05:30 | 32.99314 | -96.81492 | 15865 ft | 352 kts | 348° |
| 2026-05-05 05:31 | 33.01762 | -96.81811 | 16531 ft | 354 kts | 348° |
| 2026-05-05 05:31 | 33.04220 | -96.82136 | 17169 ft | 357 kts | 348° |
| 2026-05-05 05:31 | 33.06664 | -96.82454 | 17795 ft | 360 kts | 348° |
| 2026-05-05 05:31 | 33.09161 | -96.82774 | 18418 ft | 362 kts | 348° |
| 2026-05-05 05:32 | 33.11679 | -96.83091 | 19026 ft | 365 kts | 348° |
| 2026-05-05 05:32 | 33.14210 | -96.83405 | 19584 ft | 368 kts | 348° |
| 2026-05-05 05:32 | 33.16766 | -96.83718 | 19757 ft | 369 kts | 348° |
| 2026-05-05 05:32 | 33.19273 | -96.84020 | 19800 ft | 354 kts | 348° |
| 2026-05-05 05:33 | 33.21691 | -96.84309 | 19806 ft | 346 kts | 347° |
| 2026-05-05 05:33 | 33.24072 | -96.84600 | 19804 ft | 343 kts | 347° |
| 2026-05-05 05:33 | 33.26449 | -96.84897 | 19795 ft | 343 kts | 347° |
| 2026-05-05 05:33 | 33.28819 | -96.85197 | 19793 ft | 343 kts | 347° |
| 2026-05-05 05:34 | 33.31160 | -96.85496 | 19794 ft | 343 kts | 347° |
| 2026-05-05 05:34 | 33.33531 | -96.85794 | 19794 ft | 344 kts | 347° |
| 2026-05-05 05:34 | 33.35912 | -96.86091 | 19794 ft | 344 kts | 347° |
| 2026-05-05 05:34 | 33.38291 | -96.86386 | 19794 ft | 343 kts | 347° |
| 2026-05-05 05:35 | 33.40667 | -96.86679 | 19794 ft | 343 kts | 347° |
| 2026-05-05 05:35 | 33.43043 | -96.86975 | 19795 ft | 343 kts | 347° |
| 2026-05-05 05:35 | 33.45418 | -96.87270 | 19796 ft | 343 kts | 347° |
| 2026-05-05 05:35 | 33.47797 | -96.87569 | 19798 ft | 344 kts | 347° |
| 2026-05-05 05:36 | 33.50173 | -96.87867 | 19801 ft | 344 kts | 347° |
| 2026-05-05 05:36 | 33.52553 | -96.88164 | 19803 ft | 343 kts | 347° |
| 2026-05-05 05:36 | 33.54894 | -96.88454 | 19803 ft | 344 kts | 347° |
| 2026-05-05 05:36 | 33.57277 | -96.88750 | 19804 ft | 343 kts | 347° |
| 2026-05-05 05:37 | 33.59654 | -96.89049 | 19805 ft | 343 kts | 347° |
| 2026-05-05 05:37 | 33.62025 | -96.89348 | 19805 ft | 343 kts | 347° |
| 2026-05-05 05:37 | 33.64398 | -96.89647 | 19801 ft | 343 kts | 347° |
| 2026-05-05 05:37 | 33.66768 | -96.89947 | 19801 ft | 343 kts | 347° |
| 2026-05-05 05:38 | 33.69139 | -96.90248 | 19799 ft | 343 kts | 347° |
| 2026-05-05 05:38 | 33.71515 | -96.90546 | 19795 ft | 343 kts | 347° |
| 2026-05-05 05:38 | 33.73893 | -96.90843 | 19795 ft | 344 kts | 347° |
| 2026-05-05 05:38 | 33.76269 | -96.91139 | 19796 ft | 344 kts | 347° |
| 2026-05-05 05:39 | 33.78614 | -96.91433 | 19797 ft | 344 kts | 347° |
| 2026-05-05 05:39 | 33.80996 | -96.91733 | 19798 ft | 344 kts | 347° |
| 2026-05-05 05:39 | 33.83373 | -96.92034 | 19798 ft | 343 kts | 347° |
| 2026-05-05 05:39 | 33.85750 | -96.92332 | 19797 ft | 344 kts | 347° |
| 2026-05-05 05:40 | 33.88127 | -96.92628 | 19795 ft | 344 kts | 347° |
| 2026-05-05 05:40 | 33.90508 | -96.92925 | 19796 ft | 344 kts | 347° |
| 2026-05-05 05:40 | 33.92884 | -96.93223 | 19795 ft | 344 kts | 347° |
| 2026-05-05 05:40 | 33.95259 | -96.93525 | 19791 ft | 344 kts | 347° |
| 2026-05-05 05:41 | 33.97637 | -96.93828 | 19789 ft | 344 kts | 347° |
| 2026-05-05 05:41 | 33.99983 | -96.94125 | 19786 ft | 344 kts | 347° |
| 2026-05-05 05:41 | 34.02361 | -96.94427 | 19783 ft | 344 kts | 348° |
| 2026-05-05 05:41 | 34.04743 | -96.94728 | 19778 ft | 344 kts | 348° |
| 2026-05-05 05:42 | 34.07124 | -96.95026 | 19775 ft | 344 kts | 348° |
| 2026-05-05 05:42 | 34.09503 | -96.95324 | 19773 ft | 344 kts | 348° |
| 2026-05-05 05:42 | 34.11879 | -96.95623 | 19772 ft | 344 kts | 347° |
| 2026-05-05 05:42 | 34.14261 | -96.95930 | 19772 ft | 344 kts | 347° |
| 2026-05-05 05:43 | 34.16635 | -96.96234 | 19769 ft | 344 kts | 348° |
| 2026-05-05 05:43 | 34.19019 | -96.96536 | 19769 ft | 344 kts | 348° |
| 2026-05-05 05:43 | 34.21402 | -96.96839 | 19764 ft | 344 kts | 348° |
| 2026-05-05 05:43 | 34.23750 | -96.97135 | 19757 ft | 344 kts | 348° |
| 2026-05-05 05:44 | 34.26127 | -96.97433 | 19753 ft | 344 kts | 348° |
| 2026-05-05 05:44 | 34.28510 | -96.97734 | 19752 ft | 344 kts | 348° |
| 2026-05-05 05:44 | 34.30885 | -96.98036 | 19755 ft | 343 kts | 348° |
| 2026-05-05 05:44 | 34.33257 | -96.98343 | 19754 ft | 343 kts | 347° |
| 2026-05-05 05:45 | 34.35636 | -96.98649 | 19750 ft | 343 kts | 348° |
| 2026-05-05 05:45 | 34.37977 | -96.99116 | 19747 ft | 338 kts | 339° |
| 2026-05-05 05:45 | 34.40150 | -97.00119 | 19748 ft | 331 kts | 327° |
| 2026-05-05 05:45 | 34.42185 | -97.01422 | 19745 ft | 331 kts | 327° |
| 2026-05-05 05:46 | 34.44198 | -97.02711 | 19747 ft | 332 kts | 327° |
| 2026-05-05 05:46 | 34.46236 | -97.04012 | 19746 ft | 332 kts | 327° |
| 2026-05-05 05:46 | 34.48280 | -97.05311 | 19744 ft | 331 kts | 327° |
| 2026-05-05 05:46 | 34.50322 | -97.06608 | 19739 ft | 332 kts | 327° |
| 2026-05-05 05:47 | 34.52366 | -97.07909 | 19745 ft | 332 kts | 327° |
| 2026-05-05 05:47 | 34.54406 | -97.09213 | 19741 ft | 331 kts | 327° |
| 2026-05-05 05:47 | 34.56445 | -97.10521 | 19746 ft | 331 kts | 327° |
| 2026-05-05 05:47 | 34.58484 | -97.11827 | 19750 ft | 331 kts | 327° |
| 2026-05-05 05:48 | 34.60526 | -97.13134 | 19743 ft | 331 kts | 327° |
| 2026-05-05 05:48 | 34.62563 | -97.14441 | 19752 ft | 332 kts | 327° |
| 2026-05-05 05:48 | 34.64619 | -97.15762 | 19749 ft | 342 kts | 327° |
| 2026-05-05 05:48 | 34.66763 | -97.17146 | 19749 ft | 353 kts | 327° |
| 2026-05-05 05:49 | 34.68907 | -97.18525 | 19750 ft | 353 kts | 327° |
| 2026-05-05 05:49 | 34.71020 | -97.19873 | 19634 ft | 332 kts | 327° |
| 2026-05-05 05:49 | 34.73022 | -97.21145 | 19136 ft | 320 kts | 327° |
| 2026-05-05 05:49 | 34.74977 | -97.22396 | 18461 ft | 315 kts | 327° |
| 2026-05-05 05:50 | 34.76905 | -97.23637 | 17739 ft | 312 kts | 327° |
| 2026-05-05 05:50 | 34.78808 | -97.24879 | 17020 ft | 309 kts | 326° |
| 2026-05-05 05:50 | 34.80651 | -97.26193 | 16637 ft | 306 kts | 324° |
| 2026-05-05 05:50 | 34.82454 | -97.27549 | 16315 ft | 304 kts | 323° |
| 2026-05-05 05:51 | 34.84239 | -97.28918 | 15989 ft | 303 kts | 323° |
| 2026-05-05 05:51 | 34.86014 | -97.30283 | 15681 ft | 302 kts | 323° |
| 2026-05-05 05:51 | 34.87764 | -97.31622 | 15360 ft | 301 kts | 323° |
| 2026-05-05 05:51 | 34.89537 | -97.32966 | 15041 ft | 300 kts | 323° |
| 2026-05-05 05:52 | 34.91316 | -97.34311 | 14646 ft | 301 kts | 323° |
| 2026-05-05 05:52 | 34.93090 | -97.35658 | 14247 ft | 301 kts | 323° |
| 2026-05-05 05:52 | 34.94874 | -97.37015 | 13839 ft | 301 kts | 323° |
| 2026-05-05 05:52 | 34.96653 | -97.38373 | 13435 ft | 302 kts | 322° |
| 2026-05-05 05:53 | 34.98428 | -97.39728 | 13093 ft | 300 kts | 322° |
| 2026-05-05 05:53 | 35.00198 | -97.41081 | 12680 ft | 300 kts | 322° |
| 2026-05-05 05:53 | 35.01961 | -97.42429 | 12280 ft | 300 kts | 322° |
| 2026-05-05 05:53 | 35.03720 | -97.43772 | 11906 ft | 298 kts | 322° |
| 2026-05-05 05:54 | 35.05450 | -97.45091 | 11530 ft | 297 kts | 322° |
| 2026-05-05 05:54 | 35.06686 | -97.45915 | 11236 ft | 301 kts | 331° |
| 2026-05-05 05:54 | 35.07420 | -97.46264 | 11133 ft | 301 kts | 339° |
| 2026-05-05 05:54 | 35.09489 | -97.46772 | 10884 ft | 311 kts | 349° |
| 2026-05-05 05:55 | 35.11674 | -97.46947 | 10337 ft | 312 kts | 351° |
| 2026-05-05 05:55 | 35.13834 | -97.47087 | 9813 ft | 307 kts | 352° |
| 2026-05-05 05:55 | 35.15932 | -97.47219 | 9402 ft | 306 kts | 351° |
| 2026-05-05 05:55 | 35.18068 | -97.47353 | 8988 ft | 307 kts | 352° |
| 2026-05-05 05:56 | 35.20200 | -97.47484 | 8572 ft | 306 kts | 352° |
| 2026-05-05 05:56 | 35.22323 | -97.47623 | 8180 ft | 305 kts | 351° |
| 2026-05-05 05:56 | 35.24433 | -97.47762 | 7799 ft | 302 kts | 351° |
| 2026-05-05 05:56 | 35.26498 | -97.47893 | 7667 ft | 291 kts | 352° |
| 2026-05-05 05:57 | 35.28471 | -97.48013 | 7536 ft | 279 kts | 351° |
| 2026-05-05 05:57 | 35.30387 | -97.48133 | 7276 ft | 274 kts | 351° |
| 2026-05-05 05:57 | 35.32276 | -97.48254 | 7026 ft | 269 kts | 351° |
| 2026-05-05 05:57 | 35.34118 | -97.48374 | 6758 ft | 268 kts | 351° |
| 2026-05-05 05:58 | 35.35969 | -97.48497 | 6458 ft | 266 kts | 351° |
| 2026-05-05 05:58 | 35.37808 | -97.48618 | 6146 ft | 263 kts | 351° |
| 2026-05-05 05:58 | 35.39628 | -97.48716 | 5827 ft | 261 kts | 353° |
| 2026-05-05 05:58 | 35.41430 | -97.48741 | 5487 ft | 254 kts | 355° |
| 2026-05-05 05:59 | 35.43167 | -97.48730 | 5177 ft | 245 kts | 356° |
| 2026-05-05 05:59 | 35.44846 | -97.48714 | 4869 ft | 239 kts | 356° |
| 2026-05-05 05:59 | 35.46489 | -97.48838 | 4593 ft | 233 kts | 342° |
| 2026-05-05 05:59 | 35.47927 | -97.49606 | 4265 ft | 221 kts | 319° |
| 2026-05-05 06:00 | 35.48976 | -97.50898 | 3968 ft | 208 kts | 297° |
| 2026-05-05 06:00 | 35.49563 | -97.52442 | 3715 ft | 193 kts | 278° |
| 2026-05-05 06:00 | 35.49708 | -97.53997 | 3478 ft | 180 kts | 259° |
| 2026-05-05 06:00 | 35.49481 | -97.55463 | 3262 ft | 167 kts | 243° |
| 2026-05-05 06:01 | 35.48978 | -97.56679 | 3060 ft | 160 kts | 228° |
| 2026-05-05 06:01 | 35.48252 | -97.57668 | 2852 ft | 153 kts | 215° |
| 2026-05-05 06:01 | 35.47379 | -97.58372 | 2651 ft | 147 kts | 201° |
| 2026-05-05 06:01 | 35.46446 | -97.58774 | 2449 ft | 139 kts | 190° |
| 2026-05-05 06:02 | 35.45497 | -97.58898 | 2299 ft | 136 kts | 179° |
| 2026-05-05 06:02 | 35.44555 | -97.58892 | 2108 ft | 135 kts | 179° |
| 2026-05-05 06:02 | 35.43618 | -97.58887 | 1908 ft | 134 kts | 178° |
| 2026-05-05 06:02 | 35.42692 | -97.58889 | 1728 ft | 134 kts | 180° |
| 2026-05-05 06:03 | 35.41774 | -97.58905 | 1623 ft | 136 kts | 179° |
| 2026-05-05 06:03 | 35.40837 | -97.58896 | 1415 ft | 132 kts | 178° |
| 2026-05-05 06:03 | 35.39923 | -97.58898 | 1305 ft | 127 kts | 179° |
| 2026-05-05 06:03 | 35.39211 | -97.58891 | 1294 ft | 63 kts | 180° |
| 2026-05-05 06:04 | 35.38902 | -97.58891 | 1294 ft | 32 kts | 181° |
| 2026-05-05 06:04 | 35.38808 | -97.58947 | 1293 ft | 12 kts | 234° |
| 2026-05-05 06:04 | 35.38815 | -97.59044 | 1291 ft | 12 kts | 314° |
| 2026-05-05 06:04 | 35.38880 | -97.59062 | 1292 ft | 8 kts | 0° |
| 2026-05-05 06:05 | 35.38947 | -97.59062 | 1294 ft | 13 kts | 0° |
| 2026-05-05 06:05 | 35.39088 | -97.59062 | 1292 ft | 23 kts | 1° |
| 2026-05-05 06:05 | 35.39207 | -97.59072 | 1292 ft | 8 kts | 324° |
| 2026-05-05 06:05 | 35.39215 | -97.59128 | 1292 ft | 7 kts | 269° |
| 2026-05-05 06:06 | 35.39226 | -97.59210 | 1294 ft | 13 kts | 302° |
| 2026-05-05 06:06 | 35.39304 | -97.59226 | 1294 ft | 11 kts | 7° |
| 2026-05-05 06:06 | 35.39372 | -97.59243 | 1295 ft | 9 kts | 321° |
| 2026-05-05 06:06 | 35.39419 | -97.59228 | 1296 ft | 7 kts | 16° |
| 2026-05-05 06:07 | 35.39441 | -97.59266 | 1297 ft | 6 kts | 285° |
| 2026-05-05 06:07 | 35.39456 | -97.59304 | 1297 ft | 4 kts | 298° |
| 2026-05-05 06:07 | 35.39468 | -97.59332 | 1297 ft | 3 kts | 298° |
| 2026-05-05 06:07 | 35.39478 | -97.59355 | 1297 ft | 3 kts | 298° |
| 2026-05-05 06:08 | 35.39483 | -97.59368 | 1297 ft | 0 kts | 298° |